Time;durP1;ratioP1;P1;durP2;ratioP2;P2;SDS_P1;SDS_P2;PMS_P1;PMS_P2;Temp;Humidity;BMP_temperature;BMP_pressure;BME280_temperature;BME280_humidity;BME280_pressure;Samples;Min_cycle;Max_cycle;Signal;HPM_P1;HPM_P2
2022/06/02 00:01:24;;;;;;;32.97;21.17;;;;;;;19.90;76.96;100832.16;5017057;28;20104;-80
2022/06/02 00:04:18;;;;;;;37.05;23.05;;;;;;;19.92;76.86;100819.13;5017702;28;20084;-82
2022/06/02 00:07:10;;;;;;;40.08;23.40;;;;;;;19.92;76.98;100830.03;5034778;28;20057;-82
2022/06/02 00:10:07;;;;;;;36.65;23.70;;;;;;;20.00;76.55;100835.25;5000431;28;20069;-85
2022/06/02 00:13:14;;;;;;;35.83;22.98;;;;;;;19.97;76.58;100832.09;5029726;28;20037;-82
2022/06/02 00:15:45;;;;;;;34.47;22.55;;;;;;;19.95;76.44;100829.63;5035670;28;20101;-81
2022/06/02 00:18:20;;;;;;;37.15;22.77;;;;;;;19.93;76.73;100831.72;4983002;28;20045;-82
2022/06/02 00:20:56;;;;;;;35.33;22.25;;;;;;;20.01;76.09;100828.72;5009487;28;20091;-81
2022/06/02 00:24:10;;;;;;;39.72;22.83;;;;;;;20.06;75.67;100829.97;5016454;28;20128;-81
2022/06/02 00:26:57;;;;;;;42.25;22.20;;;;;;;19.95;75.90;100832.34;4909397;29;20175;-81
2022/06/02 00:30:10;;;;;;;34.78;21.30;;;;;;;20.00;75.72;100837.16;5022773;28;20049;-83
2022/06/02 00:33:17;;;;;;;39.85;20.65;;;;;;;19.86;76.21;100825.47;4971308;28;20498;-82
2022/06/02 00:36:23;;;;;;;29.58;20.63;;;;;;;19.88;76.24;100826.09;5017530;28;20125;-83
2022/06/02 00:38:53;;;;;;;35.75;19.70;;;;;;;19.85;75.92;100817.50;4996474;28;20188;-83
2022/06/02 00:41:38;;;;;;;33.60;19.73;;;;;;;19.76;76.27;100827.81;4994961;28;20041;-82
2022/06/02 00:44:30;;;;;;;31.83;19.25;;;;;;;19.76;75.98;100820.50;5010565;28;20039;-81
2022/06/02 00:47:04;;;;;;;32.28;18.83;;;;;;;19.66;75.67;100797.41;5023144;28;20038;-81
2022/06/02 00:49:36;;;;;;;33.50;19.27;;;;;;;19.74;76.01;100821.75;4992460;28;20047;-81
2022/06/02 00:52:25;;;;;;;30.23;19.00;;;;;;;19.75;76.02;100828.88;5010708;28;20034;-80
2022/06/02 00:58:29;;;;;;;33.90;19.83;;;;;;;19.80;75.26;100831.78;5011974;28;20048;-79
2022/06/02 01:01:33;;;;;;;37.25;19.67;;;;;;;19.61;75.89;100823.44;5023372;28;20061;-81
2022/06/02 01:04:01;;;;;;;26.38;18.67;;;;;;;19.54;75.49;100810.91;5028641;28;20052;-81
2022/06/02 01:06:54;;;;;;;34.05;20.02;;;;;;;19.74;75.27;100827.22;5001697;28;20038;-83
2022/06/02 01:09:38;;;;;;;37.75;21.90;;;;;;;19.63;75.55;100836.03;4938248;29;20043;-82
2022/06/02 01:12:14;;;;;;;37.70;21.67;;;;;;;19.52;75.33;100813.84;5026092;28;20030;-81
2022/06/02 01:14:55;;;;;;;42.33;22.77;;;;;;;19.64;75.44;100822.16;5027381;28;20045;-80
2022/06/02 01:17:58;;;;;;;44.08;23.75;;;;;;;19.69;75.10;100825.16;5027084;28;20056;-81
2022/06/02 01:20:43;;;;;;;45.08;23.27;;;;;;;19.65;75.36;100828.50;5027544;28;20533;-81
2022/06/02 01:23:30;;;;;;;41.63;24.83;;;;;;;19.65;74.99;100825.75;5020282;28;20037;-80
2022/06/02 01:26:15;;;;;;;43.80;25.10;;;;;;;19.69;74.64;100821.56;5023305;28;20054;-81
2022/06/02 01:29:19;;;;;;;45.60;24.90;;;;;;;19.67;74.51;100829.94;5027726;28;20042;-82
2022/06/02 01:32:06;;;;;;;40.35;23.83;;;;;;;19.70;74.53;100824.06;5026192;28;20489;-81
2022/06/02 01:35:00;;;;;;;42.47;23.65;;;;;;;19.64;74.67;100826.81;5029284;28;20076;-80
2022/06/02 01:37:49;;;;;;;40.72;23.85;;;;;;;19.65;74.40;100825.75;5029489;28;20041;-80
2022/06/02 01:40:36;;;;;;;41.60;23.52;;;;;;;19.64;74.35;100826.81;4996372;28;20038;-81
2022/06/02 01:43:42;;;;;;;34.67;23.40;;;;;;;19.58;74.38;100818.44;4997975;28;20037;-81
2022/06/02 01:46:23;;;;;;;42.33;23.85;;;;;;;19.61;74.46;100823.44;5028890;28;20092;-81
2022/06/02 01:49:08;;;;;;;36.17;23.20;;;;;;;19.55;75.47;100823.47;5013325;28;20037;-80
2022/06/02 01:51:49;;;;;;;39.70;23.92;;;;;;;19.56;74.94;100819.72;5015551;28;20037;-82
2022/06/02 01:54:57;;;;;;;36.88;23.15;;;;;;;19.52;74.95;100819.28;5021982;28;20569;-80
2022/06/02 01:57:39;;;;;;;35.38;21.77;;;;;;;19.56;74.69;100820.53;5020347;28;20034;-82
2022/06/02 02:00:18;;;;;;;33.70;21.60;;;;;;;19.60;74.59;100838.16;5010662;28;20182;-81
2022/06/02 02:03:08;;;;;;;40.97;21.70;;;;;;;19.60;74.42;100829.13;5050616;28;20061;-80
2022/06/02 02:06:15;;;;;;;34.47;21.70;;;;;;;19.51;74.52;100838.63;5024470;28;20042;-81
2022/06/02 02:08:55;;;;;;;35.65;22.05;;;;;;;19.57;74.21;100824.09;5033155;28;20060;-81
2022/06/02 02:11:52;;;;;;;37.20;21.27;;;;;;;19.59;73.98;100830.19;5028977;28;20520;-82
2022/06/02 02:14:26;;;;;;;38.70;21.05;;;;;;;19.59;73.88;100825.56;5014913;28;20489;-81
2022/06/02 02:17:05;;;;;;;35.00;21.45;;;;;;;19.54;74.34;100821.81;4998996;28;20046;-81
2022/06/02 02:20:09;;;;;;;37.10;21.67;;;;;;;19.59;73.96;100827.44;5021303;28;20033;-81
2022/06/02 02:22:57;;;;;;;35.40;20.98;;;;;;;19.57;73.91;100821.38;5029018;28;20539;-82
2022/06/02 02:25:52;;;;;;;33.45;19.73;;;;;;;19.50;74.01;100815.97;5011249;28;20045;-83
2022/06/02 02:28:53;;;;;;;33.22;19.65;;;;;;;19.53;73.73;100814.69;5012593;28;20071;-82
2022/06/02 02:31:25;;;;;;;28.45;19.17;;;;;;;19.59;73.93;100825.56;5020287;28;20064;-81
2022/06/02 02:34:15;;;;;;;28.45;17.65;;;;;;;19.52;73.56;100813.00;5009763;28;20034;-81
2022/06/02 02:37:09;;;;;;;27.52;17.92;;;;;;;19.58;73.26;100817.59;5016862;28;20124;-80
2022/06/02 02:40:15;;;;;;;28.92;17.98;;;;;;;19.59;73.22;100819.25;5018106;28;20522;-82
2022/06/02 02:42:51;;;;;;;26.85;16.98;;;;;;;19.52;73.09;100813.84;5009723;28;20037;-81
2022/06/02 02:45:50;;;;;;;28.80;17.50;;;;;;;19.53;73.30;100818.25;5026676;28;20410;-81
2022/06/02 02:48:36;;;;;;;28.50;16.67;;;;;;;19.53;72.92;100814.69;5005086;28;20037;-80
2022/06/02 02:51:35;;;;;;;25.98;17.85;;;;;;;19.57;73.26;100827.69;5026473;28;20030;-80
2022/06/02 02:54:03;;;;;;;28.70;16.50;;;;;;;19.61;73.03;100831.63;5030258;28;20030;-82
2022/06/02 02:56:38;;;;;;;26.80;17.10;;;;;;;19.48;73.05;100812.63;5025667;28;20030;-81
2022/06/02 02:59:06;;;;;;;25.85;17.30;;;;;;;19.68;72.59;100828.03;4992469;28;20034;-82
2022/06/02 03:01:45;;;;;;;24.73;16.70;;;;;;;19.70;72.46;100839.63;5011862;28;20087;-81
2022/06/02 03:04:44;;;;;;;29.05;17.00;;;;;;;19.61;72.81;100850.72;5031631;28;20025;-82
2022/06/02 03:07:10;;;;;;;28.42;17.05;;;;;;;19.66;72.55;100847.34;5001775;28;20416;-81
2022/06/02 03:09:57;;;;;;;29.00;18.02;;;;;;;19.68;72.33;100844.41;5025588;28;20041;-81
2022/06/02 03:12:44;;;;;;;30.27;16.67;;;;;;;19.75;72.51;100847.97;5027283;28;20057;-82
2022/06/02 03:15:39;;;;;;;29.65;17.42;;;;;;;19.84;72.28;100845.84;5015209;28;20025;-82
2022/06/02 03:18:24;;;;;;;27.35;16.73;;;;;;;19.88;72.11;100849.78;4995616;28;20516;-82
2022/06/02 03:21:11;;;;;;;27.55;16.40;;;;;;;19.94;71.86;100846.19;5020442;28;20083;-82
2022/06/02 03:24:16;;;;;;;25.98;15.43;;;;;;;19.97;71.57;100843.88;5019998;28;20037;-82
2022/06/02 03:26:57;;;;;;;25.23;15.35;;;;;;;20.05;71.57;100844.69;5014861;28;20072;-82
2022/06/02 03:29:44;;;;;;;29.67;15.68;;;;;;;20.08;71.45;100845.06;5020705;28;20033;-81
2022/06/02 03:32:21;;;;;;;27.33;14.57;;;;;;;20.12;71.20;100850.94;5022514;28;20033;-82
2022/06/02 03:35:36;;;;;;;27.65;14.52;;;;;;;20.11;70.60;100831.00;5012043;28;20060;-81
2022/06/02 03:38:36;;;;;;;18.33;12.02;;;;;;;20.24;70.28;100849.16;5029474;28;20578;-79
2022/06/02 03:41:39;;;;;;;21.13;12.70;;;;;;;20.33;69.85;100853.31;5024377;28;20490;-82
2022/06/02 03:44:29;;;;;;;23.23;12.27;;;;;;;20.35;69.83;100845.72;5022634;28;20049;-81
2022/06/02 03:47:18;;;;;;;25.75;13.20;;;;;;;20.39;69.61;100843.38;5008869;28;20045;-81
2022/06/02 03:49:52;;;;;;;25.27;14.63;;;;;;;20.51;69.73;100855.28;5010095;28;20045;-80
2022/06/02 03:52:40;;;;;;;27.50;15.98;;;;;;;20.53;70.02;100846.84;5023872;28;20040;-82
2022/06/02 03:55:17;;;;;;;33.03;16.85;;;;;;;20.53;70.08;100849.59;5020006;28;20490;-80
2022/06/02 03:57:46;;;;;;;28.85;17.98;;;;;;;20.60;69.88;100844.94;5007769;28;20111;-81
2022/06/02 04:00:43;;;;;;;40.78;21.23;;;;;;;20.69;69.49;100845.50;5010786;28;20827;-80
2022/06/02 04:03:11;;;;;;;38.45;20.73;;;;;;;20.84;69.72;100855.03;4990360;28;20049;-83
2022/06/02 04:06:06;;;;;;;39.42;21.80;;;;;;;20.98;69.20;100849.44;5013140;28;20159;-83
2022/06/02 04:09:20;;;;;;;33.60;20.60;;;;;;;21.16;68.60;100846.72;5011304;28;20048;-84
2022/06/02 04:15:32;;;;;;;43.38;19.67;;;;;;;21.43;66.92;100835.53;5026958;28;20057;-80
2022/06/02 04:18:10;;;;;;;30.85;16.83;;;;;;;21.58;66.22;100848.81;5010924;28;20029;-82
2022/06/02 04:21:27;;;;;;;34.25;16.83;;;;;;;21.63;65.91;100851.69;5002757;28;20040;-81
2022/06/02 04:24:01;;;;;;;37.80;15.57;;;;;;;21.77;65.21;100846.88;5007730;28;20037;-81
2022/06/02 04:26:42;;;;;;;26.73;15.60;;;;;;;22.06;64.21;100850.72;5012102;28;20033;-81
2022/06/02 04:29:33;;;;;;;27.27;14.50;;;;;;;22.37;64.01;100862.50;5012286;28;20038;-82
2022/06/02 04:32:16;;;;;;;29.95;13.60;;;;;;;22.58;62.97;100861.13;5012331;28;20041;-82
2022/06/02 04:35:06;;;;;;;36.08;13.45;;;;;;;22.77;62.48;100862.69;5014002;28;20021;-81
2022/06/02 04:37:56;;;;;;;31.02;13.57;;;;;;;23.12;61.78;100861.91;4994064;28;20033;-80
2022/06/02 04:40:50;;;;;;;26.10;13.13;;;;;;;23.29;60.76;100860.09;4996157;28;20116;-83
2022/06/02 04:43:25;;;;;;;28.70;13.38;;;;;;;23.48;60.25;100865.41;5009305;28;20107;-83
2022/06/02 04:46:18;;;;;;;29.57;16.20;;;;;;;23.65;59.26;100862.75;5011619;28;20526;-83
2022/06/02 04:49:08;;;;;;;36.00;17.88;;;;;;;23.79;58.57;100854.03;5030476;28;20418;-83
2022/06/02 04:51:55;;;;;;;33.55;18.02;;;;;;;23.75;59.30;100858.34;4996544;28;20079;-84
2022/06/02 04:54:48;;;;;;;35.20;17.25;;;;;;;24.04;58.88;100872.09;5007879;28;20421;-81
2022/06/02 04:57:33;;;;;;;31.13;16.20;;;;;;;24.17;58.22;100866.31;5027332;28;20156;-83
2022/06/02 05:00:30;;;;;;;30.00;15.63;;;;;;;24.34;57.96;100876.50;5011852;28;20095;-82
2022/06/02 05:03:05;;;;;;;31.27;16.35;;;;;;;24.51;57.22;100876.53;5000654;28;20086;-82
2022/06/02 05:05:33;;;;;;;31.30;15.68;;;;;;;24.61;56.80;100873.97;4983585;28;20057;-82
2022/06/02 05:08:26;;;;;;;32.75;15.77;;;;;;;24.89;55.85;100880.44;5016673;28;20060;-82
2022/06/02 05:11:20;;;;;;;32.78;17.00;;;;;;;25.11;55.61;100880.53;5030666;28;20505;-82
2022/06/02 05:14:12;;;;;;;38.73;22.80;;;;;;;25.25;54.79;100882.69;5030709;28;20483;-83
2022/06/02 05:16:55;;;;;;;35.00;16.75;;;;;;;25.43;54.08;100878.81;5024733;28;20037;-82
2022/06/02 05:20:02;;;;;;;30.58;18.95;;;;;;;25.66;54.03;100882.41;5009348;28;20037;-82
2022/06/02 05:22:55;;;;;;;36.08;20.40;;;;;;;26.02;52.98;100874.63;5023270;28;20038;-81
2022/06/02 05:26:04;;;;;;;39.28;21.02;;;;;;;26.08;52.26;100862.53;5031047;28;20120;-80
2022/06/02 05:29:11;;;;;;;41.05;21.23;;;;;;;26.17;52.04;100869.25;5031260;28;20034;-81
2022/06/02 05:32:15;;;;;;;39.58;22.40;;;;;;;26.19;52.22;100864.31;5007819;28;20166;-80
2022/06/02 05:35:15;;;;;;;39.22;21.10;;;;;;;26.37;52.13;100871.38;4937331;29;20103;-82
2022/06/02 05:37:51;;;;;;;36.75;21.40;;;;;;;26.66;51.42;100863.66;4920256;29;20134;-83
2022/06/02 05:40:38;;;;;;;33.33;20.25;;;;;;;26.74;50.79;100871.47;4992646;28;20076;-81
2022/06/02 05:43:08;;;;;;;30.17;20.77;;;;;;;26.93;50.01;100865.53;5007302;28;20040;-83
2022/06/02 05:45:43;;;;;;;27.63;19.38;;;;;;;27.10;49.27;100868.97;5014861;28;20037;-84
2022/06/02 05:48:23;;;;;;;31.23;18.02;;;;;;;27.20;48.87;100870.16;5030244;28;20033;-83
2022/06/02 05:51:01;;;;;;;27.48;18.02;;;;;;;27.39;48.46;100865.00;5014616;28;20041;-82
2022/06/02 05:54:02;;;;;;;28.77;16.98;;;;;;;27.67;47.44;100883.09;5023097;28;20057;-83
2022/06/02 05:56:45;;;;;;;33.20;18.10;;;;;;;27.62;46.10;100874.78;5012196;28;20046;-81
2022/06/02 05:59:51;;;;;;;29.40;17.58;;;;;;;27.29;47.05;100890.63;5020807;28;20057;-84
2022/06/02 06:02:25;;;;;;;31.52;20.27;;;;;;;27.44;46.14;100881.59;5019972;28;20068;-83
2022/06/02 06:05:15;;;;;;;30.52;18.92;;;;;;;27.55;46.51;100892.41;5031226;28;20041;-81
2022/06/02 06:08:05;;;;;;;28.80;19.20;;;;;;;27.73;46.43;100884.78;5029593;28;20102;-82
2022/06/02 06:10:58;;;;;;;28.60;19.10;;;;;;;28.04;45.76;100882.97;5017461;28;20061;-81
2022/06/02 06:13:45;;;;;;;33.35;17.15;;;;;;;28.35;45.39;100881.13;5036699;28;20029;-81
2022/06/02 06:16:39;;;;;;;33.03;18.80;;;;;;;28.55;43.83;100877.56;5018428;28;20080;-83
2022/06/02 06:19:41;;;;;;;24.30;17.00;;;;;;;28.60;43.85;100863.72;5031794;28;20041;-82
2022/06/02 06:22:32;;;;;;;23.75;15.27;;;;;;;28.79;43.96;100874.22;5021216;28;20046;-82
2022/06/02 06:24:58;;;;;;;23.13;14.25;;;;;;;28.69;43.76;100866.78;5036830;28;20029;-82
2022/06/02 06:27:30;;;;;;;20.67;13.05;;;;;;;28.83;43.31;100861.50;5020118;28;20525;-82
2022/06/02 06:30:25;;;;;;;19.13;13.25;;;;;;;28.90;42.42;100864.00;5029631;28;20035;-83
2022/06/02 06:32:57;;;;;;;22.73;12.13;;;;;;;28.83;42.45;100867.84;5016192;28;20040;-81
2022/06/02 06:35:52;;;;;;;18.20;11.60;;;;;;;28.83;42.97;100862.31;5028031;28;20045;-81
2022/06/02 06:38:50;;;;;;;19.35;10.88;;;;;;;28.89;42.69;100863.13;5033101;28;20057;-83
2022/06/02 06:41:57;;;;;;;17.70;9.80;;;;;;;28.89;42.68;100860.38;5011734;28;20037;-83
2022/06/02 06:44:27;;;;;;;24.60;9.80;;;;;;;29.33;42.12;100865.28;4956270;28;20074;-80
2022/06/02 06:47:24;;;;;;;17.05;9.38;;;;;;;29.38;41.62;100872.75;5017982;28;20050;-82
2022/06/02 06:50:23;;;;;;;15.82;9.05;;;;;;;29.64;41.50;100871.56;5011513;28;20474;-82
2022/06/02 06:53:18;;;;;;;21.48;8.60;;;;;;;29.69;41.19;100861.59;5014323;28;20044;-82
2022/06/02 06:56:11;;;;;;;16.00;8.93;;;;;;;30.18;40.18;100863.53;5016173;28;20160;-81
2022/06/02 06:59:04;;;;;;;24.40;9.63;;;;;;;30.55;39.68;100862.19;5016233;28;20037;-80
2022/06/02 07:01:57;;;;;;;18.87;8.67;;;;;;;31.01;39.34;100867.34;4992887;28;20166;-82
2022/06/02 07:04:56;;;;;;;16.15;8.43;;;;;;;31.22;38.39;100866.00;5027465;28;20061;-81
2022/06/02 07:07:31;;;;;;;16.40;6.88;;;;;;;31.29;37.66;100846.22;5025978;28;20034;-80
2022/06/02 07:10:19;;;;;;;16.30;7.60;;;;;;;31.57;37.56;100861.19;5012444;28;20117;-82
2022/06/02 07:12:55;;;;;;;16.80;7.30;;;;;;;31.75;36.87;100863.19;5020147;28;20030;-83
2022/06/02 07:15:47;;;;;;;17.70;7.60;;;;;;;31.68;36.32;100868.28;5005543;28;20083;-83
2022/06/02 07:18:22;;;;;;;15.85;7.43;;;;;;;31.81;36.93;100871.44;5032590;28;20064;-85
2022/06/02 07:21:16;;;;;;;14.75;7.15;;;;;;;31.58;37.19;100860.03;5028229;28;20080;-82
2022/06/02 07:24:03;;;;;;;15.90;7.10;;;;;;;31.72;37.70;100868.50;5030182;28;20043;-83
2022/06/02 07:26:46;;;;;;;11.63;6.90;;;;;;;31.72;36.67;100869.31;5029391;28;20441;-83
2022/06/02 07:29:49;;;;;;;15.35;7.32;;;;;;;31.53;37.33;100866.50;5028228;28;20025;-83
2022/06/02 07:32:45;;;;;;;17.30;7.27;;;;;;;31.46;37.26;100860.47;5027475;28;20520;-83
2022/06/02 07:35:38;;;;;;;14.63;6.88;;;;;;;31.81;37.52;100872.25;5030596;28;20470;-84
2022/06/02 07:38:26;;;;;;;12.03;6.27;;;;;;;31.88;37.63;100875.50;5026732;28;20029;-84
2022/06/02 07:41:30;;;;;;;12.52;7.68;;;;;;;32.12;36.71;100878.25;5020299;28;20662;-88
2022/06/02 07:44:33;;;;;;;15.77;7.13;;;;;;;31.77;38.26;100876.75;5030055;28;20057;-86
2022/06/02 07:47:32;;;;;;;13.02;6.68;;;;;;;31.65;38.48;100873.59;5008169;28;20042;-88
2022/06/02 07:50:34;;;;;;;10.10;6.50;;;;;;;31.82;36.26;100871.16;5014852;28;20482;-92
2022/06/02 07:53:37;;;;;;;13.15;5.70;;;;;;;32.12;35.72;100878.25;5033449;28;20091;-90
2022/06/02 07:56:42;;;;;;;15.48;6.20;;;;;;;32.40;34.22;100886.72;5014282;28;20037;-89
2022/06/02 07:59:44;;;;;;;17.70;6.10;;;;;;;32.27;35.46;100884.72;5034282;28;20029;-88
2022/06/02 08:02:34;;;;;;;13.88;6.35;;;;;;;31.92;36.67;100878.53;5038304;28;20059;-89
2022/06/02 08:05:28;;;;;;;14.15;7.30;;;;;;;31.51;38.45;100887.38;5026244;28;20066;-91
2022/06/02 08:08:22;;;;;;;14.30;7.60;;;;;;;31.75;38.32;100888.19;5042756;28;20052;-87
2022/06/02 08:11:08;;;;;;;12.98;7.53;;;;;;;31.72;38.34;100880.44;5032264;28;20519;-86
2022/06/02 08:13:58;;;;;;;13.00;7.78;;;;;;;31.62;39.49;100888.91;5024749;28;20037;-85
2022/06/02 08:17:05;;;;;;;12.82;7.82;;;;;;;31.65;39.91;100879.97;5038096;28;20509;-86
2022/06/02 08:19:48;;;;;;;12.38;8.32;;;;;;;31.58;40.47;100878.69;5027265;28;20041;-87
2022/06/02 08:22:25;;;;;;;14.60;7.90;;;;;;;31.49;39.96;100884.06;5024989;28;20037;-86
2022/06/02 08:25:10;;;;;;;12.38;7.40;;;;;;;31.63;39.14;100861.94;5014548;28;20034;-86
2022/06/02 08:28:16;;;;;;;17.13;7.60;;;;;;;31.51;39.71;100876.25;5011981;28;20045;-83
2022/06/02 08:31:02;;;;;;;19.90;7.50;;;;;;;31.74;38.46;100869.84;5008853;28;20049;-85
2022/06/02 08:34:11;;;;;;;14.13;6.95;;;;;;;31.80;38.19;100858.69;5021227;28;20390;-84
2022/06/02 08:36:48;;;;;;;12.35;7.15;;;;;;;32.01;38.00;100864.78;4965410;28;20524;-87
2022/06/02 08:39:38;;;;;;;16.52;7.38;;;;;;;32.72;37.23;100871.22;5004814;28;20116;-84
2022/06/02 08:42:42;;;;;;;12.95;6.60;;;;;;;32.86;36.38;100879.59;5011966;28;20041;-85
2022/06/02 08:45:53;;;;;;;13.30;7.15;;;;;;;33.59;35.80;100886.31;5011083;28;20116;-84
2022/06/02 08:48:45;;;;;;;15.73;6.97;;;;;;;33.38;35.83;100894.25;5013239;28;20091;-84
2022/06/02 08:51:43;;;;;;;14.48;6.47;;;;;;;33.08;35.64;100892.88;5022031;28;20041;-84
2022/06/02 08:54:31;;;;;;;13.13;6.35;;;;;;;33.65;35.02;100904.59;5030186;28;20529;-89
2022/06/02 08:57:24;;;;;;;11.57;7.07;;;;;;;33.54;35.58;100900.34;5009864;28;20044;-86
2022/06/02 09:00:50;;;;;;;14.52;8.00;;;;;;;32.61;37.32;100897.56;5022274;28;20165;-85
2022/06/02 09:03:57;;;;;;;10.35;7.38;;;;;;;32.84;36.75;100904.13;5026357;28;20509;-87
2022/06/02 09:07:00;;;;;;;15.05;7.65;;;;;;;33.40;36.58;100909.53;5003233;28;20048;-86
2022/06/02 09:10:11;;;;;;;14.60;7.53;;;;;;;33.51;35.92;100901.78;5018849;28;20041;-84
2022/06/02 09:12:43;;;;;;;11.07;7.10;;;;;;;34.47;34.54;100902.78;5024830;28;20490;-86
2022/06/02 09:15:49;;;;;;;18.17;7.00;;;;;;;34.46;33.69;100903.91;5028887;28;20057;-87
2022/06/02 09:18:42;;;;;;;14.07;7.20;;;;;;;34.68;32.83;100900.34;5035043;28;20038;-84
2022/06/02 09:21:25;;;;;;;17.10;6.97;;;;;;;34.95;32.32;100890.16;5011933;28;20092;-82
2022/06/02 09:24:22;;;;;;;19.38;6.45;;;;;;;34.71;33.33;100905.28;5001148;28;20046;-85
2022/06/02 09:27:31;;;;;;;12.52;6.80;;;;;;;35.05;32.19;100893.50;5017279;28;20033;-85
2022/06/02 09:30:25;;;;;;;20.15;6.38;;;;;;;35.68;31.62;100894.31;5024209;28;20108;-85
2022/06/02 09:33:37;;;;;;;15.10;6.70;;;;;;;35.36;32.15;100897.47;5029941;28;20037;-85
2022/06/02 09:36:33;;;;;;;11.65;6.25;;;;;;;34.96;31.55;100906.59;5024221;28;20104;-83
2022/06/02 09:39:59;;;;;;;11.98;6.15;;;;;;;35.67;31.22;100903.84;5029532;28;20420;-82
2022/06/02 09:42:52;;;;;;;14.45;6.70;;;;;;;35.88;30.52;100909.66;4895534;29;20047;-82
2022/06/02 09:45:24;;;;;;;11.27;6.47;;;;;;;36.07;31.14;100908.53;5024761;28;20612;-82
2022/06/02 09:48:20;;;;;;;14.50;6.90;;;;;;;35.74;31.13;100913.72;5009809;28;20029;-80
2022/06/02 09:51:23;;;;;;;12.35;7.10;;;;;;;36.18;31.44;100923.06;5022872;28;20048;-80
2022/06/02 09:54:08;;;;;;;14.68;7.05;;;;;;;37.18;30.03;100917.22;5028561;28;20029;-81
2022/06/02 09:57:55;;;;;;;12.73;7.05;;;;;;;36.48;30.90;100907.22;5014496;28;20045;-80
2022/06/02 10:00:32;;;;;;;11.85;7.65;;;;;;;36.85;30.33;100921.72;5020941;28;20044;-80
2022/06/02 10:03:27;;;;;;;14.38;6.68;;;;;;;37.02;29.56;100918.88;4981787;28;20041;-80
2022/06/02 10:06:03;;;;;;;13.60;6.82;;;;;;;35.92;30.55;100921.00;5023409;28;20419;-81
2022/06/02 10:08:39;;;;;;;13.85;6.13;;;;;;;35.49;31.65;100919.69;5009497;28;20572;-81
2022/06/02 10:11:23;;;;;;;12.95;7.00;;;;;;;35.64;32.42;100924.06;5005118;28;20030;-80
2022/06/02 10:13:54;;;;;;;;;;;;;;;35.85;31.73;100927.09;5008845;28;20387;-82
2022/06/02 10:17:07;;;;;;;13.55;7.20;;;;;;;35.95;31.12;100920.34;5009237;28;19964;-80
2022/06/02 10:20:00;;;;;;;13.55;7.63;;;;;;;35.13;33.06;100907.88;5020514;28;20076;-79
2022/06/02 10:22:26;;;;;;;;;;;;;;;34.65;33.48;100932.53;5017634;28;20038;-79
2022/06/02 10:25:19;;;;;;;13.02;7.47;;;;;;;34.75;32.91;100925.03;5026239;28;20437;-80
2022/06/02 10:28:14;;;;;;;10.88;7.32;;;;;;;34.66;34.69;100916.59;5013150;28;20102;-81
2022/06/02 10:31:25;;;;;;;11.90;7.68;;;;;;;35.66;33.38;100913.38;4985739;28;20042;-83
2022/06/02 10:34:06;;;;;;;14.18;7.90;;;;;;;35.97;33.50;100911.66;5006794;28;20050;-80
2022/06/02 10:36:38;;;;;;;18.23;7.47;;;;;;;36.44;32.69;100914.66;5006841;28;20037;-82
2022/06/02 10:39:35;;;;;;;11.48;7.32;;;;;;;36.00;32.76;100923.00;5026282;28;20026;-82
2022/06/02 10:42:11;;;;;;;10.68;7.57;;;;;;;35.83;32.93;100917.38;5001810;28;20410;-80
2022/06/02 10:44:47;;;;;;;13.30;8.18;;;;;;;34.84;34.20;100923.94;5012914;28;20057;-79
2022/06/02 10:47:36;;;;;;;13.02;7.75;;;;;;;34.00;35.45;100913.34;5008353;28;20075;-80
2022/06/02 10:50:28;;;;;;;13.98;7.55;;;;;;;33.30;37.20;100909.72;5011086;28;20033;-81
2022/06/02 10:53:10;;;;;;;12.18;7.70;;;;;;;33.11;37.93;100906.19;5023605;28;20030;-81
2022/06/02 10:56:01;;;;;;;17.10;7.70;;;;;;;33.35;36.80;100906.84;4995832;28;20034;-82
2022/06/02 10:59:04;;;;;;;11.82;7.15;;;;;;;32.95;37.38;100905.63;4992059;28;20120;-79
2022/06/02 11:01:51;;;;;;;12.43;7.85;;;;;;;32.09;39.55;100917.78;5002620;28;20038;-79
2022/06/02 11:04:36;;;;;;;14.52;7.90;;;;;;;32.10;39.23;100913.88;5031499;28;20045;-81
2022/06/02 11:07:22;;;;;;;15.63;8.20;;;;;;;31.46;41.38;100904.09;5020285;28;20073;-79
2022/06/02 11:10:16;;;;;;;11.02;7.32;;;;;;;31.03;41.77;100912.31;5015112;28;20120;-81
2022/06/02 11:13:08;;;;;;;15.17;8.17;;;;;;;30.63;43.28;100905.97;5023071;28;20037;-82
2022/06/02 11:15:51;;;;;;;11.75;7.85;;;;;;;29.49;45.09;100902.09;5009681;28;20460;-78
2022/06/02 11:18:39;;;;;;;11.87;8.33;;;;;;;29.59;46.21;100910.34;5026873;28;20041;-80
2022/06/02 11:21:44;;;;;;;10.45;8.30;;;;;;;29.43;46.58;100919.81;5028804;28;20442;-82
2022/06/02 11:25:02;;;;;;;13.30;8.70;;;;;;;29.52;45.92;100909.81;4998355;28;20178;-79
2022/06/02 11:27:57;;;;;;;10.98;8.32;;;;;;;29.75;45.49;100911.16;4973853;28;20045;-80
2022/06/02 11:30:53;;;;;;;11.63;8.30;;;;;;;30.33;44.31;100910.59;5023052;28;20064;-81
2022/06/02 11:34:08;;;;;;;11.35;7.88;;;;;;;30.02;44.47;100899.69;5024838;28;20093;-78
2022/06/02 11:37:15;;;;;;;12.05;7.55;;;;;;;30.44;43.48;100905.84;5007119;28;20042;-80
2022/06/02 11:39:58;;;;;;;12.75;7.90;;;;;;;30.23;44.27;100899.56;5019628;28;20034;-83
2022/06/02 11:42:40;;;;;;;12.52;7.82;;;;;;;30.01;44.46;100906.31;5027577;28;20033;-85
2022/06/02 11:45:19;;;;;;;13.88;8.07;;;;;;;29.34;46.33;100900.19;5013855;28;20040;-83
2022/06/02 11:48:00;;;;;;;15.52;8.38;;;;;;;29.45;46.61;100918.44;5012978;28;20084;-88
2022/06/02 11:51:11;;;;;;;13.90;8.07;;;;;;;29.03;47.21;100904.91;5017374;28;20044;-86
2022/06/02 11:54:35;;;;;;;16.30;8.70;;;;;;;29.07;48.22;100905.19;5028874;28;20097;-85
2022/06/02 11:57:23;;;;;;;13.65;9.00;;;;;;;29.48;46.60;100911.53;5007270;28;20048;-87
2022/06/02 12:00:24;;;;;;;14.20;8.45;;;;;;;29.24;47.33;100906.59;5028064;28;20043;-86
2022/06/02 12:03:20;;;;;;;13.85;9.10;;;;;;;29.01;49.03;100896.09;4968545;28;20529;-87
2022/06/02 12:06:29;;;;;;;12.15;8.75;;;;;;;28.97;48.83;100894.97;5006747;28;20046;-85
2022/06/02 12:09:20;;;;;;;14.07;8.68;;;;;;;28.70;48.78;100881.41;5006838;28;20057;-87
2022/06/02 12:12:17;;;;;;;16.45;8.63;;;;;;;28.65;49.56;100885.00;5008951;28;20175;-87
2022/06/02 12:14:54;;;;;;;14.13;10.32;;;;;;;28.36;50.50;100885.53;5009281;28;20113;-84
2022/06/02 12:18:05;;;;;;;13.50;9.65;;;;;;;27.91;50.99;100872.41;5011283;28;20054;-87
2022/06/02 12:21:06;;;;;;;12.77;10.20;;;;;;;28.13;51.03;100874.97;4999314;28;20068;-82
2022/06/02 12:24:07;;;;;;;16.80;10.00;;;;;;;28.17;50.76;100870.56;5001833;28;20042;-82
2022/06/02 12:27:11;;;;;;;16.17;10.00;;;;;;;28.01;51.64;100849.53;5007226;28;20068;-83
2022/06/02 12:29:59;;;;;;;15.18;10.65;;;;;;;27.46;53.66;100852.63;5012949;28;20433;-87
2022/06/02 12:32:46;;;;;;;14.05;10.80;;;;;;;27.49;53.46;100857.63;5018206;28;20041;-84
2022/06/02 12:35:28;;;;;;;14.23;10.40;;;;;;;27.15;53.88;100843.31;5008893;28;20491;-85
2022/06/02 12:38:38;;;;;;;14.52;9.95;;;;;;;27.17;54.37;100844.72;5006658;28;20033;-84
2022/06/02 12:41:28;;;;;;;13.65;10.07;;;;;;;27.22;53.91;100845.88;5005855;28;20032;-84
2022/06/02 12:44:22;;;;;;;12.20;9.05;;;;;;;26.96;53.42;100834.66;5010239;28;20033;-82
2022/06/02 12:47:10;;;;;;;14.18;9.35;;;;;;;27.16;52.75;100839.47;5003434;28;20446;-82
2022/06/02 12:49:38;;;;;;;13.18;9.38;;;;;;;26.63;53.71;100844.06;5008059;28;20414;-83
2022/06/02 12:52:27;;;;;;;12.18;9.00;;;;;;;26.56;53.76;100830.50;5004131;28;20034;-82
2022/06/02 12:55:22;;;;;;;13.93;8.47;;;;;;;26.58;54.19;100839.34;5007680;28;20494;-83
2022/06/02 12:58:15;;;;;;;12.20;8.80;;;;;;;26.66;54.02;100833.34;5012260;28;20041;-84
2022/06/02 13:00:56;;;;;;;16.05;9.20;;;;;;;26.29;54.99;100831.38;5011372;28;20029;-83
2022/06/02 13:03:52;;;;;;;16.38;8.63;;;;;;;26.66;54.22;100830.59;5010236;28;20145;-83
2022/06/02 13:06:43;;;;;;;11.30;9.18;;;;;;;26.43;54.57;100830.91;5007662;28;20522;-84
2022/06/02 13:09:22;;;;;;;13.90;9.07;;;;;;;26.35;54.58;100840.50;5010919;28;20060;-84